sensor_id;sensor_type;location;lat;lon;timestamp;P1;durP1;ratioP1;P2;durP2;ratioP2
75935;SDS011;64614;32.062;34.834;2023-02-01T00:01:54;8.95;;;2.40;;
75935;SDS011;64614;32.062;34.834;2023-02-01T00:04:21;6.15;;;1.90;;
75935;SDS011;64614;32.062;34.834;2023-02-01T00:06:47;7.38;;;1.88;;
75935;SDS011;64614;32.062;34.834;2023-02-01T00:09:13;11.30;;;1.95;;
75935;SDS011;64614;32.062;34.834;2023-02-01T00:11:39;7.05;;;1.92;;
75935;SDS011;64614;32.062;34.834;2023-02-01T00:14:05;8.02;;;2.30;;
75935;SDS011;64614;32.062;34.834;2023-02-01T00:16:31;9.88;;;2.15;;
75935;SDS011;64614;32.062;34.834;2023-02-01T00:19:02;7.60;;;2.08;;
75935;SDS011;64614;32.062;34.834;2023-02-01T00:21:27;6.90;;;2.20;;
75935;SDS011;64614;32.062;34.834;2023-02-01T00:23:54;5.28;;;1.90;;
75935;SDS011;64614;32.062;34.834;2023-02-01T00:26:23;7.00;;;1.77;;
75935;SDS011;64614;32.062;34.834;2023-02-01T00:28:55;8.05;;;1.85;;
75935;SDS011;64614;32.062;34.834;2023-02-01T00:31:21;8.73;;;2.20;;
75935;SDS011;64614;32.062;34.834;2023-02-01T00:33:47;7.85;;;1.80;;
75935;SDS011;64614;32.062;34.834;2023-02-01T00:36:13;6.63;;;1.80;;
75935;SDS011;64614;32.062;34.834;2023-02-01T00:38:38;5.80;;;1.80;;
75935;SDS011;64614;32.062;34.834;2023-02-01T00:41:05;4.85;;;1.65;;
75935;SDS011;64614;32.062;34.834;2023-02-01T00:43:39;6.95;;;1.98;;
75935;SDS011;64614;32.062;34.834;2023-02-01T00:46:05;9.80;;;2.03;;
75935;SDS011;64614;32.062;34.834;2023-02-01T00:48:32;14.88;;;2.40;;
75935;SDS011;64614;32.062;34.834;2023-02-01T00:50:59;9.73;;;2.38;;
75935;SDS011;64614;32.062;34.834;2023-02-01T00:53:29;8.93;;;2.20;;
75935;SDS011;64614;32.062;34.834;2023-02-01T00:55:55;11.35;;;2.67;;
75935;SDS011;64614;32.062;34.834;2023-02-01T00:58:21;7.45;;;1.90;;
75935;SDS011;64614;32.062;34.834;2023-02-01T01:01:00;6.85;;;2.13;;
75935;SDS011;64614;32.062;34.834;2023-02-01T01:03:32;14.77;;;2.53;;
75935;SDS011;64614;32.062;34.834;2023-02-01T01:05:59;12.98;;;2.40;;
75935;SDS011;64614;32.062;34.834;2023-02-01T01:08:27;10.20;;;2.15;;
75935;SDS011;64614;32.062;34.834;2023-02-01T01:10:52;12.50;;;2.60;;
75935;SDS011;64614;32.062;34.834;2023-02-01T01:13:18;6.82;;;2.03;;
75935;SDS011;64614;32.062;34.834;2023-02-01T01:15:44;7.57;;;2.30;;
75935;SDS011;64614;32.062;34.834;2023-02-01T01:18:09;10.38;;;2.20;;
75935;SDS011;64614;32.062;34.834;2023-02-01T01:20:37;8.45;;;2.00;;
75935;SDS011;64614;32.062;34.834;2023-02-01T01:23:04;8.02;;;2.15;;
75935;SDS011;64614;32.062;34.834;2023-02-01T01:25:30;8.70;;;1.88;;
75935;SDS011;64614;32.062;34.834;2023-02-01T01:27:57;7.00;;;2.00;;
75935;SDS011;64614;32.062;34.834;2023-02-01T01:30:23;7.38;;;2.10;;
75935;SDS011;64614;32.062;34.834;2023-02-01T01:32:49;8.90;;;1.75;;
75935;SDS011;64614;32.062;34.834;2023-02-01T01:35:17;8.50;;;1.90;;
75935;SDS011;64614;32.062;34.834;2023-02-01T01:37:42;10.43;;;2.13;;
75935;SDS011;64614;32.062;34.834;2023-02-01T01:40:09;9.07;;;2.10;;
75935;SDS011;64614;32.062;34.834;2023-02-01T01:42:37;10.25;;;2.10;;
75935;SDS011;64614;32.062;34.834;2023-02-01T01:45:06;9.52;;;1.90;;
75935;SDS011;64614;32.062;34.834;2023-02-01T01:47:55;9.43;;;2.38;;
75935;SDS011;64614;32.062;34.834;2023-02-01T01:50:30;7.63;;;1.70;;
75935;SDS011;64614;32.062;34.834;2023-02-01T01:53:00;14.15;;;2.15;;
75935;SDS011;64614;32.062;34.834;2023-02-01T01:55:28;7.95;;;2.10;;
75935;SDS011;64614;32.062;34.834;2023-02-01T01:58:00;10.13;;;2.10;;
75935;SDS011;64614;32.062;34.834;2023-02-01T02:00:31;7.53;;;2.30;;
75935;SDS011;64614;32.062;34.834;2023-02-01T02:02:59;8.15;;;1.80;;
75935;SDS011;64614;32.062;34.834;2023-02-01T02:05:31;8.70;;;1.83;;
75935;SDS011;64614;32.062;34.834;2023-02-01T02:07:58;10.07;;;2.00;;
75935;SDS011;64614;32.062;34.834;2023-02-01T02:10:26;7.43;;;2.13;;
75935;SDS011;64614;32.062;34.834;2023-02-01T02:13:12;8.30;;;2.10;;
75935;SDS011;64614;32.062;34.834;2023-02-01T02:15:41;9.40;;;2.03;;
75935;SDS011;64614;32.062;34.834;2023-02-01T02:18:21;7.38;;;2.00;;
75935;SDS011;64614;32.062;34.834;2023-02-01T02:21:11;10.50;;;1.90;;
75935;SDS011;64614;32.062;34.834;2023-02-01T02:34:49;7.45;;;2.03;;
75935;SDS011;64614;32.062;34.834;2023-02-01T02:48:55;10.50;;;2.60;;
75935;SDS011;64614;32.062;34.834;2023-02-01T02:51:26;10.93;;;2.40;;
75935;SDS011;64614;32.062;34.834;2023-02-01T02:54:18;12.48;;;2.35;;
75935;SDS011;64614;32.062;34.834;2023-02-01T02:57:07;10.02;;;2.75;;
75935;SDS011;64614;32.062;34.834;2023-02-01T02:59:54;10.80;;;2.40;;
75935;SDS011;64614;32.062;34.834;2023-02-01T03:02:41;9.10;;;2.30;;
75935;SDS011;64614;32.062;34.834;2023-02-01T03:05:25;9.35;;;2.10;;
75935;SDS011;64614;32.062;34.834;2023-02-01T03:13:03;9.02;;;2.70;;
75935;SDS011;64614;32.062;34.834;2023-02-01T03:15:37;9.55;;;2.08;;
75935;SDS011;64614;32.062;34.834;2023-02-01T03:21:04;9.43;;;2.45;;
75935;SDS011;64614;32.062;34.834;2023-02-01T03:23:34;11.18;;;2.45;;
75935;SDS011;64614;32.062;34.834;2023-02-01T03:26:03;9.52;;;2.70;;
75935;SDS011;64614;32.062;34.834;2023-02-01T03:28:31;8.65;;;2.53;;
75935;SDS011;64614;32.062;34.834;2023-02-01T03:31:00;8.70;;;2.40;;
75935;SDS011;64614;32.062;34.834;2023-02-01T03:33:27;11.50;;;2.50;;
75935;SDS011;64614;32.062;34.834;2023-02-01T03:41:40;6.85;;;2.35;;
75935;SDS011;64614;32.062;34.834;2023-02-01T03:46:49;8.43;;;2.20;;
75935;SDS011;64614;32.062;34.834;2023-02-01T03:49:36;7.05;;;2.33;;
75935;SDS011;64614;32.062;34.834;2023-02-01T03:52:06;9.23;;;2.15;;
75935;SDS011;64614;32.062;34.834;2023-02-01T03:54:38;9.23;;;2.25;;
75935;SDS011;64614;32.062;34.834;2023-02-01T03:57:06;8.82;;;2.50;;
75935;SDS011;64614;32.062;34.834;2023-02-01T03:59:38;8.85;;;2.42;;
75935;SDS011;64614;32.062;34.834;2023-02-01T04:02:06;6.82;;;2.40;;
75935;SDS011;64614;32.062;34.834;2023-02-01T04:04:31;10.48;;;2.47;;
75935;SDS011;64614;32.062;34.834;2023-02-01T04:06:59;7.32;;;2.50;;
75935;SDS011;64614;32.062;34.834;2023-02-01T04:09:25;12.93;;;2.90;;
75935;SDS011;64614;32.062;34.834;2023-02-01T04:11:51;8.63;;;2.75;;
75935;SDS011;64614;32.062;34.834;2023-02-01T04:14:16;9.70;;;2.60;;
75935;SDS011;64614;32.062;34.834;2023-02-01T04:16:42;9.07;;;2.63;;
75935;SDS011;64614;32.062;34.834;2023-02-01T04:19:08;11.05;;;2.53;;
75935;SDS011;64614;32.062;34.834;2023-02-01T04:21:33;9.57;;;2.63;;
75935;SDS011;64614;32.062;34.834;2023-02-01T04:23:59;11.10;;;3.03;;
75935;SDS011;64614;32.062;34.834;2023-02-01T04:26:24;11.07;;;2.60;;
75935;SDS011;64614;32.062;34.834;2023-02-01T04:28:50;11.63;;;2.90;;
75935;SDS011;64614;32.062;34.834;2023-02-01T04:31:18;12.10;;;2.95;;
75935;SDS011;64614;32.062;34.834;2023-02-01T04:33:53;10.88;;;3.05;;
75935;SDS011;64614;32.062;34.834;2023-02-01T04:36:20;12.23;;;3.08;;
75935;SDS011;64614;32.062;34.834;2023-02-01T04:38:47;13.07;;;3.10;;
75935;SDS011;64614;32.062;34.834;2023-02-01T04:43:47;12.05;;;3.10;;
75935;SDS011;64614;32.062;34.834;2023-02-01T04:46:14;10.15;;;2.70;;
75935;SDS011;64614;32.062;34.834;2023-02-01T04:48:39;9.32;;;2.50;;
75935;SDS011;64614;32.062;34.834;2023-02-01T04:51:05;11.63;;;2.70;;
75935;SDS011;64614;32.062;34.834;2023-02-01T04:56:06;10.35;;;2.33;;
75935;SDS011;64614;32.062;34.834;2023-02-01T04:58:33;10.93;;;2.63;;
75935;SDS011;64614;32.062;34.834;2023-02-01T05:00:58;9.18;;;2.22;;
75935;SDS011;64614;32.062;34.834;2023-02-01T05:03:24;9.90;;;2.70;;
75935;SDS011;64614;32.062;34.834;2023-02-01T05:05:50;10.70;;;2.53;;
75935;SDS011;64614;32.062;34.834;2023-02-01T05:08:18;10.27;;;2.88;;
75935;SDS011;64614;32.062;34.834;2023-02-01T05:10:44;9.32;;;2.78;;
75935;SDS011;64614;32.062;34.834;2023-02-01T05:13:10;11.70;;;2.50;;
75935;SDS011;64614;32.062;34.834;2023-02-01T05:15:54;8.77;;;2.35;;
75935;SDS011;64614;32.062;34.834;2023-02-01T05:18:20;7.60;;;2.42;;
75935;SDS011;64614;32.062;34.834;2023-02-01T05:20:46;9.10;;;2.33;;
75935;SDS011;64614;32.062;34.834;2023-02-01T05:23:11;5.93;;;2.35;;
75935;SDS011;64614;32.062;34.834;2023-02-01T05:25:37;11.80;;;2.85;;
75935;SDS011;64614;32.062;34.834;2023-02-01T05:28:03;11.43;;;2.75;;
75935;SDS011;64614;32.062;34.834;2023-02-01T05:30:29;12.27;;;2.75;;
75935;SDS011;64614;32.062;34.834;2023-02-01T05:32:54;11.65;;;2.60;;
75935;SDS011;64614;32.062;34.834;2023-02-01T05:35:20;14.43;;;3.28;;
75935;SDS011;64614;32.062;34.834;2023-02-01T05:37:46;11.90;;;2.70;;
75935;SDS011;64614;32.062;34.834;2023-02-01T05:40:12;8.95;;;2.75;;
75935;SDS011;64614;32.062;34.834;2023-02-01T05:42:37;16.85;;;2.78;;
75935;SDS011;64614;32.062;34.834;2023-02-01T05:45:03;10.98;;;3.30;;
75935;SDS011;64614;32.062;34.834;2023-02-01T05:47:30;13.88;;;3.33;;
75935;SDS011;64614;32.062;34.834;2023-02-01T05:49:56;13.63;;;3.03;;
75935;SDS011;64614;32.062;34.834;2023-02-01T05:52:22;11.50;;;3.17;;
75935;SDS011;64614;32.062;34.834;2023-02-01T05:54:48;14.30;;;2.90;;
75935;SDS011;64614;32.062;34.834;2023-02-01T05:57:13;12.93;;;2.92;;
75935;SDS011;64614;32.062;34.834;2023-02-01T05:59:39;12.68;;;3.00;;
75935;SDS011;64614;32.062;34.834;2023-02-01T06:02:13;15.02;;;3.08;;
75935;SDS011;64614;32.062;34.834;2023-02-01T06:04:39;12.48;;;2.90;;
75935;SDS011;64614;32.062;34.834;2023-02-01T06:07:05;17.20;;;3.30;;
75935;SDS011;64614;32.062;34.834;2023-02-01T06:09:36;24.35;;;3.53;;
75935;SDS011;64614;32.062;34.834;2023-02-01T06:12:04;12.55;;;3.03;;
75935;SDS011;64614;32.062;34.834;2023-02-01T06:14:31;17.35;;;3.13;;
75935;SDS011;64614;32.062;34.834;2023-02-01T06:16:56;16.58;;;3.67;;
75935;SDS011;64614;32.062;34.834;2023-02-01T06:19:22;25.63;;;3.55;;
75935;SDS011;64614;32.062;34.834;2023-02-01T06:21:48;16.05;;;3.47;;
75935;SDS011;64614;32.062;34.834;2023-02-01T06:24:14;17.38;;;2.83;;
75935;SDS011;64614;32.062;34.834;2023-02-01T06:26:41;10.55;;;2.60;;
75935;SDS011;64614;32.062;34.834;2023-02-01T06:29:07;172.77;;;21.38;;
75935;SDS011;64614;32.062;34.834;2023-02-01T06:31:34;46.55;;;7.50;;
75935;SDS011;64614;32.062;34.834;2023-02-01T06:34:00;52.08;;;6.90;;
75935;SDS011;64614;32.062;34.834;2023-02-01T06:36:26;29.65;;;5.93;;
75935;SDS011;64614;32.062;34.834;2023-02-01T06:38:51;30.50;;;6.00;;
75935;SDS011;64614;32.062;34.834;2023-02-01T06:41:17;25.85;;;5.40;;
75935;SDS011;64614;32.062;34.834;2023-02-01T06:43:45;30.90;;;4.70;;
75935;SDS011;64614;32.062;34.834;2023-02-01T06:46:12;26.30;;;4.75;;
75935;SDS011;64614;32.062;34.834;2023-02-01T06:48:38;21.60;;;4.65;;
75935;SDS011;64614;32.062;34.834;2023-02-01T06:51:04;15.60;;;4.03;;
75935;SDS011;64614;32.062;34.834;2023-02-01T06:53:30;20.10;;;4.15;;
75935;SDS011;64614;32.062;34.834;2023-02-01T06:55:59;20.45;;;4.00;;
75935;SDS011;64614;32.062;34.834;2023-02-01T06:58:28;17.73;;;4.28;;
75935;SDS011;64614;32.062;34.834;2023-02-01T07:00:55;15.00;;;3.17;;
75935;SDS011;64614;32.062;34.834;2023-02-01T07:03:21;14.95;;;3.53;;
75935;SDS011;64614;32.062;34.834;2023-02-01T07:05:46;23.67;;;4.70;;
75935;SDS011;64614;32.062;34.834;2023-02-01T07:08:12;16.63;;;3.38;;
75935;SDS011;64614;32.062;34.834;2023-02-01T07:10:38;14.50;;;3.53;;
75935;SDS011;64614;32.062;34.834;2023-02-01T07:13:04;14.80;;;4.07;;
75935;SDS011;64614;32.062;34.834;2023-02-01T07:15:29;15.50;;;3.47;;
75935;SDS011;64614;32.062;34.834;2023-02-01T07:17:55;24.58;;;4.53;;
75935;SDS011;64614;32.062;34.834;2023-02-01T07:20:22;14.82;;;3.45;;
75935;SDS011;64614;32.062;34.834;2023-02-01T07:22:48;19.05;;;4.28;;
75935;SDS011;64614;32.062;34.834;2023-02-01T07:25:14;33.85;;;4.18;;
75935;SDS011;64614;32.062;34.834;2023-02-01T07:27:40;23.27;;;4.95;;
75935;SDS011;64614;32.062;34.834;2023-02-01T07:30:06;23.02;;;4.93;;
75935;SDS011;64614;32.062;34.834;2023-02-01T07:32:32;18.90;;;4.53;;
75935;SDS011;64614;32.062;34.834;2023-02-01T07:34:59;26.55;;;4.53;;
75935;SDS011;64614;32.062;34.834;2023-02-01T07:37:25;22.25;;;5.32;;
75935;SDS011;64614;32.062;34.834;2023-02-01T07:39:50;16.67;;;3.63;;
75935;SDS011;64614;32.062;34.834;2023-02-01T07:42:17;15.43;;;4.13;;
75935;SDS011;64614;32.062;34.834;2023-02-01T07:44:42;14.70;;;3.17;;
75935;SDS011;64614;32.062;34.834;2023-02-01T07:47:08;15.98;;;3.80;;
75935;SDS011;64614;32.062;34.834;2023-02-01T07:49:34;17.17;;;5.13;;
75935;SDS011;64614;32.062;34.834;2023-02-01T07:52:00;17.48;;;5.00;;
75935;SDS011;64614;32.062;34.834;2023-02-01T07:54:25;18.83;;;4.93;;
75935;SDS011;64614;32.062;34.834;2023-02-01T07:56:52;18.58;;;4.80;;
75935;SDS011;64614;32.062;34.834;2023-02-01T07:59:17;19.88;;;4.57;;
75935;SDS011;64614;32.062;34.834;2023-02-01T08:01:43;16.70;;;3.92;;
75935;SDS011;64614;32.062;34.834;2023-02-01T08:04:12;19.90;;;4.60;;
75935;SDS011;64614;32.062;34.834;2023-02-01T08:06:38;18.90;;;4.70;;
75935;SDS011;64614;32.062;34.834;2023-02-01T08:09:04;14.35;;;4.00;;
75935;SDS011;64614;32.062;34.834;2023-02-01T08:11:32;15.52;;;4.25;;
75935;SDS011;64614;32.062;34.834;2023-02-01T08:13:58;15.70;;;4.10;;
75935;SDS011;64614;32.062;34.834;2023-02-01T08:16:24;20.05;;;4.40;;
75935;SDS011;64614;32.062;34.834;2023-02-01T08:18:52;17.52;;;4.68;;
75935;SDS011;64614;32.062;34.834;2023-02-01T08:23:53;31.60;;;5.43;;
75935;SDS011;64614;32.062;34.834;2023-02-01T08:26:22;36.55;;;5.25;;
75935;SDS011;64614;32.062;34.834;2023-02-01T08:31:25;28.42;;;5.20;;
75935;SDS011;64614;32.062;34.834;2023-02-01T08:33:55;27.00;;;5.20;;
75935;SDS011;64614;32.062;34.834;2023-02-01T08:36:25;28.63;;;4.50;;
75935;SDS011;64614;32.062;34.834;2023-02-01T08:38:52;27.15;;;5.07;;
75935;SDS011;64614;32.062;34.834;2023-02-01T08:41:20;27.23;;;5.22;;
75935;SDS011;64614;32.062;34.834;2023-02-01T08:43:48;27.35;;;4.72;;
75935;SDS011;64614;32.062;34.834;2023-02-01T08:46:13;28.40;;;5.70;;
75935;SDS011;64614;32.062;34.834;2023-02-01T08:48:39;25.60;;;4.40;;
75935;SDS011;64614;32.062;34.834;2023-02-01T08:51:06;28.25;;;4.65;;
75935;SDS011;64614;32.062;34.834;2023-02-01T08:55:59;30.05;;;4.53;;
75935;SDS011;64614;32.062;34.834;2023-02-01T08:58:26;27.80;;;4.80;;
75935;SDS011;64614;32.062;34.834;2023-02-01T09:00:51;23.77;;;4.43;;
75935;SDS011;64614;32.062;34.834;2023-02-01T09:03:17;25.30;;;4.28;;
75935;SDS011;64614;32.062;34.834;2023-02-01T09:05:43;25.88;;;4.22;;
75935;SDS011;64614;32.062;34.834;2023-02-01T09:08:10;22.42;;;3.92;;
75935;SDS011;64614;32.062;34.834;2023-02-01T09:13:06;23.05;;;3.40;;
75935;SDS011;64614;32.062;34.834;2023-02-01T09:15:33;17.13;;;3.90;;
75935;SDS011;64614;32.062;34.834;2023-02-01T09:17:59;16.13;;;3.40;;
75935;SDS011;64614;32.062;34.834;2023-02-01T09:20:25;18.23;;;3.55;;
75935;SDS011;64614;32.062;34.834;2023-02-01T09:22:51;23.00;;;3.90;;
75935;SDS011;64614;32.062;34.834;2023-02-01T09:25:17;19.42;;;3.30;;
75935;SDS011;64614;32.062;34.834;2023-02-01T09:27:44;16.92;;;3.38;;
75935;SDS011;64614;32.062;34.834;2023-02-01T09:30:10;16.50;;;3.17;;
75935;SDS011;64614;32.062;34.834;2023-02-01T09:32:36;18.27;;;3.03;;
75935;SDS011;64614;32.062;34.834;2023-02-01T09:35:02;20.02;;;3.08;;
75935;SDS011;64614;32.062;34.834;2023-02-01T09:37:29;14.73;;;3.10;;
75935;SDS011;64614;32.062;34.834;2023-02-01T09:39:54;16.08;;;3.03;;
75935;SDS011;64614;32.062;34.834;2023-02-01T09:42:41;17.83;;;2.83;;
75935;SDS011;64614;32.062;34.834;2023-02-01T09:48:33;18.65;;;3.13;;
75935;SDS011;64614;32.062;34.834;2023-02-01T09:51:02;18.80;;;2.80;;
75935;SDS011;64614;32.062;34.834;2023-02-01T09:53:33;12.38;;;2.42;;
75935;SDS011;64614;32.062;34.834;2023-02-01T09:56:24;18.50;;;3.55;;
75935;SDS011;64614;32.062;34.834;2023-02-01T09:58:54;18.05;;;3.20;;
75935;SDS011;64614;32.062;34.834;2023-02-01T10:01:26;11.43;;;2.63;;
75935;SDS011;64614;32.062;34.834;2023-02-01T10:09:50;21.52;;;3.65;;
75935;SDS011;64614;32.062;34.834;2023-02-01T10:17:49;15.00;;;3.13;;
75935;SDS011;64614;32.062;34.834;2023-02-01T10:26:22;15.98;;;3.80;;
75935;SDS011;64614;32.062;34.834;2023-02-01T10:28:52;16.40;;;3.40;;
75935;SDS011;64614;32.062;34.834;2023-02-01T10:31:27;19.85;;;3.53;;
75935;SDS011;64614;32.062;34.834;2023-02-01T10:33:56;16.83;;;4.22;;
75935;SDS011;64614;32.062;34.834;2023-02-01T10:36:49;19.20;;;3.47;;
75935;SDS011;64614;32.062;34.834;2023-02-01T10:39:18;17.52;;;3.47;;
75935;SDS011;64614;32.062;34.834;2023-02-01T10:41:44;23.00;;;3.33;;
75935;SDS011;64614;32.062;34.834;2023-02-01T10:44:14;20.60;;;3.60;;
75935;SDS011;64614;32.062;34.834;2023-02-01T10:46:42;31.25;;;4.40;;
75935;SDS011;64614;32.062;34.834;2023-02-01T10:49:11;31.48;;;4.15;;
75935;SDS011;64614;32.062;34.834;2023-02-01T10:51:45;23.42;;;3.28;;
75935;SDS011;64614;32.062;34.834;2023-02-01T10:54:22;24.15;;;4.75;;
75935;SDS011;64614;32.062;34.834;2023-02-01T10:56:58;27.85;;;4.18;;
75935;SDS011;64614;32.062;34.834;2023-02-01T10:59:24;31.90;;;4.55;;
75935;SDS011;64614;32.062;34.834;2023-02-01T11:04:24;31.15;;;4.05;;
75935;SDS011;64614;32.062;34.834;2023-02-01T11:06:54;24.65;;;4.32;;
75935;SDS011;64614;32.062;34.834;2023-02-01T11:09:48;21.23;;;3.78;;
75935;SDS011;64614;32.062;34.834;2023-02-01T11:15:01;24.40;;;3.70;;
75935;SDS011;64614;32.062;34.834;2023-02-01T11:17:35;39.78;;;5.07;;
75935;SDS011;64614;32.062;34.834;2023-02-01T11:22:52;33.83;;;4.68;;
75935;SDS011;64614;32.062;34.834;2023-02-01T11:25:21;24.77;;;4.18;;
75935;SDS011;64614;32.062;34.834;2023-02-01T11:27:48;30.85;;;3.92;;
75935;SDS011;64614;32.062;34.834;2023-02-01T11:30:16;29.75;;;3.72;;
75935;SDS011;64614;32.062;34.834;2023-02-01T11:32:47;22.80;;;3.53;;
75935;SDS011;64614;32.062;34.834;2023-02-01T11:35:19;21.38;;;3.60;;
75935;SDS011;64614;32.062;34.834;2023-02-01T11:37:48;22.95;;;3.92;;
75935;SDS011;64614;32.062;34.834;2023-02-01T11:42:53;18.98;;;3.28;;
75935;SDS011;64614;32.062;34.834;2023-02-01T11:45:32;15.52;;;2.80;;
75935;SDS011;64614;32.062;34.834;2023-02-01T11:48:07;31.65;;;4.45;;
75935;SDS011;64614;32.062;34.834;2023-02-01T11:50:40;23.95;;;3.95;;
75935;SDS011;64614;32.062;34.834;2023-02-01T11:54:30;28.38;;;4.07;;
75935;SDS011;64614;32.062;34.834;2023-02-01T11:56:48;17.55;;;3.53;;
75935;SDS011;64614;32.062;34.834;2023-02-01T11:59:59;38.40;;;4.72;;
75935;SDS011;64614;32.062;34.834;2023-02-01T12:07:54;18.20;;;3.47;;
75935;SDS011;64614;32.062;34.834;2023-02-01T12:13:29;17.73;;;3.05;;
75935;SDS011;64614;32.062;34.834;2023-02-01T12:21:26;20.13;;;3.13;;
75935;SDS011;64614;32.062;34.834;2023-02-01T12:26:45;21.40;;;3.03;;
75935;SDS011;64614;32.062;34.834;2023-02-01T12:32:50;32.38;;;4.50;;
75935;SDS011;64614;32.062;34.834;2023-02-01T12:35:33;19.67;;;3.38;;
75935;SDS011;64614;32.062;34.834;2023-02-01T12:38:26;19.27;;;3.33;;
75935;SDS011;64614;32.062;34.834;2023-02-01T12:41:49;149.38;;;26.65;;
75935;SDS011;64614;32.062;34.834;2023-02-01T12:43:55;89.60;;;20.02;;
75935;SDS011;64614;32.062;34.834;2023-02-01T12:47:04;69.43;;;18.05;;
75935;SDS011;64614;32.062;34.834;2023-02-01T12:53:02;47.40;;;10.07;;
75935;SDS011;64614;32.062;34.834;2023-02-01T12:55:57;38.58;;;8.55;;
75935;SDS011;64614;32.062;34.834;2023-02-01T12:58:01;45.08;;;7.75;;
75935;SDS011;64614;32.062;34.834;2023-02-01T13:00:41;38.80;;;8.55;;
75935;SDS011;64614;32.062;34.834;2023-02-01T13:03:21;29.00;;;6.22;;
75935;SDS011;64614;32.062;34.834;2023-02-01T13:06:13;32.97;;;7.15;;
75935;SDS011;64614;32.062;34.834;2023-02-01T13:08:59;55.10;;;8.68;;
75935;SDS011;64614;32.062;34.834;2023-02-01T13:11:31;40.08;;;7.25;;
75935;SDS011;64614;32.062;34.834;2023-02-01T13:19:57;386.02;;;68.40;;
75935;SDS011;64614;32.062;34.834;2023-02-01T13:25:07;249.55;;;45.00;;
75935;SDS011;64614;32.062;34.834;2023-02-01T13:27:38;226.73;;;47.08;;
75935;SDS011;64614;32.062;34.834;2023-02-01T13:30:06;108.55;;;22.15;;
75935;SDS011;64614;32.062;34.834;2023-02-01T13:38:39;71.32;;;16.50;;
75935;SDS011;64614;32.062;34.834;2023-02-01T13:44:00;51.97;;;10.32;;
75935;SDS011;64614;32.062;34.834;2023-02-01T13:46:29;46.15;;;9.85;;
75935;SDS011;64614;32.062;34.834;2023-02-01T13:48:59;46.03;;;11.20;;
75935;SDS011;64614;32.062;34.834;2023-02-01T13:51:38;42.88;;;9.63;;
75935;SDS011;64614;32.062;34.834;2023-02-01T13:56:57;37.72;;;9.35;;
75935;SDS011;64614;32.062;34.834;2023-02-01T14:23:45;24.45;;;6.20;;
75935;SDS011;64614;32.062;34.834;2023-02-01T14:26:14;20.35;;;6.28;;
75935;SDS011;64614;32.062;34.834;2023-02-01T14:28:43;24.10;;;5.03;;
75935;SDS011;64614;32.062;34.834;2023-02-01T14:34:53;20.38;;;5.60;;
75935;SDS011;64614;32.062;34.834;2023-02-01T14:37:02;23.60;;;5.85;;
75935;SDS011;64614;32.062;34.834;2023-02-01T14:41:59;22.70;;;4.95;;
75935;SDS011;64614;32.062;34.834;2023-02-01T14:44:30;22.77;;;4.90;;
75935;SDS011;64614;32.062;34.834;2023-02-01T14:47:05;19.35;;;5.43;;
75935;SDS011;64614;32.062;34.834;2023-02-01T14:49:42;21.73;;;4.68;;
75935;SDS011;64614;32.062;34.834;2023-02-01T14:52:13;18.13;;;4.63;;
75935;SDS011;64614;32.062;34.834;2023-02-01T14:54:42;18.55;;;4.60;;
75935;SDS011;64614;32.062;34.834;2023-02-01T14:57:16;18.38;;;4.13;;
75935;SDS011;64614;32.062;34.834;2023-02-01T15:02:33;21.40;;;4.65;;
75935;SDS011;64614;32.062;34.834;2023-02-01T15:04:59;13.80;;;3.50;;
75935;SDS011;64614;32.062;34.834;2023-02-01T15:07:25;11.65;;;3.42;;
75935;SDS011;64614;32.062;34.834;2023-02-01T15:09:54;15.95;;;3.53;;
75935;SDS011;64614;32.062;34.834;2023-02-01T15:12:28;13.00;;;3.53;;
75935;SDS011;64614;32.062;34.834;2023-02-01T15:15:11;14.52;;;2.90;;
75935;SDS011;64614;32.062;34.834;2023-02-01T15:17:37;13.63;;;2.83;;
75935;SDS011;64614;32.062;34.834;2023-02-01T15:22:29;12.38;;;2.80;;
75935;SDS011;64614;32.062;34.834;2023-02-01T15:24:59;12.35;;;2.58;;
75935;SDS011;64614;32.062;34.834;2023-02-01T15:27:26;12.10;;;2.60;;
75935;SDS011;64614;32.062;34.834;2023-02-01T15:29:53;9.98;;;2.47;;
75935;SDS011;64614;32.062;34.834;2023-02-01T15:32:32;9.73;;;2.67;;
75935;SDS011;64614;32.062;34.834;2023-02-01T15:35:03;11.98;;;2.20;;
75935;SDS011;64614;32.062;34.834;2023-02-01T15:37:30;13.90;;;3.47;;
75935;SDS011;64614;32.062;34.834;2023-02-01T15:40:05;17.38;;;4.40;;
75935;SDS011;64614;32.062;34.834;2023-02-01T15:42:56;12.65;;;3.67;;
75935;SDS011;64614;32.062;34.834;2023-02-01T15:47:55;16.73;;;2.95;;
75935;SDS011;64614;32.062;34.834;2023-02-01T15:50:22;13.50;;;3.33;;
75935;SDS011;64614;32.062;34.834;2023-02-01T15:52:50;13.75;;;3.40;;
75935;SDS011;64614;32.062;34.834;2023-02-01T15:57:49;12.27;;;3.20;;
75935;SDS011;64614;32.062;34.834;2023-02-01T16:02:51;10.95;;;3.35;;
75935;SDS011;64614;32.062;34.834;2023-02-01T16:05:38;11.10;;;3.17;;
75935;SDS011;64614;32.062;34.834;2023-02-01T16:08:12;11.07;;;3.20;;
75935;SDS011;64614;32.062;34.834;2023-02-01T16:10:41;12.82;;;2.90;;
75935;SDS011;64614;32.062;34.834;2023-02-01T16:13:08;14.00;;;3.10;;
75935;SDS011;64614;32.062;34.834;2023-02-01T16:15:35;14.27;;;2.72;;
75935;SDS011;64614;32.062;34.834;2023-02-01T16:18:01;11.25;;;2.90;;
75935;SDS011;64614;32.062;34.834;2023-02-01T16:20:26;12.73;;;2.90;;
75935;SDS011;64614;32.062;34.834;2023-02-01T16:22:52;10.07;;;3.05;;
75935;SDS011;64614;32.062;34.834;2023-02-01T16:25:18;10.20;;;2.55;;
75935;SDS011;64614;32.062;34.834;2023-02-01T16:27:44;9.35;;;2.42;;
75935;SDS011;64614;32.062;34.834;2023-02-01T16:30:10;10.95;;;2.78;;
75935;SDS011;64614;32.062;34.834;2023-02-01T16:32:39;15.35;;;3.10;;
75935;SDS011;64614;32.062;34.834;2023-02-01T16:37:45;10.57;;;2.72;;
75935;SDS011;64614;32.062;34.834;2023-02-01T16:40:18;8.93;;;2.60;;
75935;SDS011;64614;32.062;34.834;2023-02-01T16:45:14;12.07;;;2.83;;
75935;SDS011;64614;32.062;34.834;2023-02-01T16:47:40;12.70;;;3.03;;
75935;SDS011;64614;32.062;34.834;2023-02-01T16:50:23;10.07;;;2.95;;
75935;SDS011;64614;32.062;34.834;2023-02-01T16:52:51;16.50;;;3.40;;
75935;SDS011;64614;32.062;34.834;2023-02-01T16:55:18;12.88;;;2.90;;
75935;SDS011;64614;32.062;34.834;2023-02-01T16:57:46;24.40;;;4.22;;
75935;SDS011;64614;32.062;34.834;2023-02-01T17:00:12;25.65;;;4.57;;
75935;SDS011;64614;32.062;34.834;2023-02-01T17:02:40;32.67;;;3.90;;
75935;SDS011;64614;32.062;34.834;2023-02-01T17:05:07;24.50;;;3.83;;
75935;SDS011;64614;32.062;34.834;2023-02-01T17:07:34;16.60;;;3.25;;
75935;SDS011;64614;32.062;34.834;2023-02-01T17:10:01;20.00;;;3.97;;
75935;SDS011;64614;32.062;34.834;2023-02-01T17:12:28;17.58;;;3.63;;
75935;SDS011;64614;32.062;34.834;2023-02-01T17:14:57;19.90;;;3.33;;
75935;SDS011;64614;32.062;34.834;2023-02-01T17:17:25;11.35;;;2.88;;
75935;SDS011;64614;32.062;34.834;2023-02-01T17:22:24;14.20;;;3.05;;
75935;SDS011;64614;32.062;34.834;2023-02-01T17:24:50;20.70;;;3.45;;
75935;SDS011;64614;32.062;34.834;2023-02-01T17:27:16;15.98;;;3.10;;
75935;SDS011;64614;32.062;34.834;2023-02-01T17:29:43;18.63;;;3.03;;
75935;SDS011;64614;32.062;34.834;2023-02-01T17:32:21;17.60;;;3.17;;
75935;SDS011;64614;32.062;34.834;2023-02-01T17:34:52;15.43;;;3.20;;
75935;SDS011;64614;32.062;34.834;2023-02-01T17:39:49;17.48;;;3.95;;
75935;SDS011;64614;32.062;34.834;2023-02-01T17:42:21;18.70;;;3.88;;